sensor_id;sensor_type;location;lat;lon;timestamp;P1;durP1;ratioP1;P2;durP2;ratioP2
76608;SDS011;65928;53.936;27.540;2023-02-03T00:00:43;7.22;;;3.42;;
76608;SDS011;65928;53.936;27.540;2023-02-03T00:03:09;5.40;;;3.55;;
76608;SDS011;65928;53.936;27.540;2023-02-03T00:05:34;4.75;;;3.15;;
76608;SDS011;65928;53.936;27.540;2023-02-03T00:08:01;6.05;;;3.75;;
76608;SDS011;65928;53.936;27.540;2023-02-03T00:10:28;5.38;;;3.50;;
76608;SDS011;65928;53.936;27.540;2023-02-03T00:12:53;4.40;;;3.08;;
76608;SDS011;65928;53.936;27.540;2023-02-03T00:15:20;5.45;;;3.78;;
76608;SDS011;65928;53.936;27.540;2023-02-03T00:17:47;5.78;;;3.40;;
76608;SDS011;65928;53.936;27.540;2023-02-03T00:20:13;5.75;;;3.78;;
76608;SDS011;65928;53.936;27.540;2023-02-03T00:22:39;5.57;;;3.55;;
76608;SDS011;65928;53.936;27.540;2023-02-03T00:25:04;4.30;;;2.50;;
76608;SDS011;65928;53.936;27.540;2023-02-03T00:27:30;6.35;;;4.20;;
76608;SDS011;65928;53.936;27.540;2023-02-03T00:29:56;5.05;;;3.33;;
76608;SDS011;65928;53.936;27.540;2023-02-03T00:32:22;5.38;;;3.83;;
76608;SDS011;65928;53.936;27.540;2023-02-03T00:34:47;5.50;;;3.63;;
76608;SDS011;65928;53.936;27.540;2023-02-03T00:37:12;4.28;;;2.33;;
76608;SDS011;65928;53.936;27.540;2023-02-03T00:39:38;5.20;;;2.95;;
76608;SDS011;65928;53.936;27.540;2023-02-03T00:42:04;4.38;;;2.92;;
76608;SDS011;65928;53.936;27.540;2023-02-03T00:44:30;4.00;;;2.70;;
76608;SDS011;65928;53.936;27.540;2023-02-03T00:46:56;5.28;;;3.28;;
76608;SDS011;65928;53.936;27.540;2023-02-03T00:49:21;5.85;;;3.40;;
76608;SDS011;65928;53.936;27.540;2023-02-03T00:51:47;5.45;;;3.25;;
76608;SDS011;65928;53.936;27.540;2023-02-03T00:54:12;3.58;;;1.88;;
76608;SDS011;65928;53.936;27.540;2023-02-03T00:56:38;3.55;;;2.45;;
76608;SDS011;65928;53.936;27.540;2023-02-03T00:59:04;4.43;;;3.08;;
76608;SDS011;65928;53.936;27.540;2023-02-03T01:01:31;3.92;;;2.42;;
76608;SDS011;65928;53.936;27.540;2023-02-03T01:03:57;4.45;;;2.60;;
76608;SDS011;65928;53.936;27.540;2023-02-03T01:06:23;4.68;;;2.90;;
76608;SDS011;65928;53.936;27.540;2023-02-03T01:08:49;4.47;;;2.63;;
76608;SDS011;65928;53.936;27.540;2023-02-03T01:11:17;4.85;;;2.50;;
76608;SDS011;65928;53.936;27.540;2023-02-03T01:13:47;3.40;;;2.47;;
76608;SDS011;65928;53.936;27.540;2023-02-03T01:16:14;3.60;;;2.47;;
76608;SDS011;65928;53.936;27.540;2023-02-03T01:18:41;3.63;;;2.15;;
76608;SDS011;65928;53.936;27.540;2023-02-03T01:21:08;3.38;;;2.20;;
76608;SDS011;65928;53.936;27.540;2023-02-03T01:23:36;4.13;;;2.30;;
76608;SDS011;65928;53.936;27.540;2023-02-03T01:26:03;4.35;;;2.40;;
76608;SDS011;65928;53.936;27.540;2023-02-03T01:28:30;3.35;;;2.00;;
76608;SDS011;65928;53.936;27.540;2023-02-03T01:30:56;3.40;;;2.28;;
76608;SDS011;65928;53.936;27.540;2023-02-03T01:33:21;3.15;;;2.33;;
76608;SDS011;65928;53.936;27.540;2023-02-03T01:35:47;3.58;;;2.15;;
76608;SDS011;65928;53.936;27.540;2023-02-03T01:38:12;4.45;;;2.70;;
76608;SDS011;65928;53.936;27.540;2023-02-03T01:40:44;3.75;;;2.30;;
76608;SDS011;65928;53.936;27.540;2023-02-03T01:43:09;3.47;;;1.83;;
76608;SDS011;65928;53.936;27.540;2023-02-03T01:46:02;4.43;;;2.47;;
76608;SDS011;65928;53.936;27.540;2023-02-03T01:48:37;4.45;;;2.33;;
76608;SDS011;65928;53.936;27.540;2023-02-03T01:51:02;3.78;;;2.20;;
76608;SDS011;65928;53.936;27.540;2023-02-03T01:53:29;3.92;;;2.63;;
76608;SDS011;65928;53.936;27.540;2023-02-03T01:55:56;3.72;;;2.47;;
76608;SDS011;65928;53.936;27.540;2023-02-03T01:58:24;4.10;;;2.58;;
76608;SDS011;65928;53.936;27.540;2023-02-03T02:00:54;4.03;;;2.72;;
76608;SDS011;65928;53.936;27.540;2023-02-03T02:03:31;4.13;;;2.55;;
76608;SDS011;65928;53.936;27.540;2023-02-03T02:06:07;3.47;;;2.13;;
76608;SDS011;65928;53.936;27.540;2023-02-03T02:08:34;3.80;;;2.67;;
76608;SDS011;65928;53.936;27.540;2023-02-03T02:11:01;3.40;;;2.22;;
76608;SDS011;65928;53.936;27.540;2023-02-03T02:13:28;3.95;;;2.50;;
76608;SDS011;65928;53.936;27.540;2023-02-03T02:16:02;3.67;;;2.63;;
76608;SDS011;65928;53.936;27.540;2023-02-03T02:35:23;4.05;;;2.03;;
76608;SDS011;65928;53.936;27.540;2023-02-03T02:38:00;2.70;;;1.70;;
76608;SDS011;65928;53.936;27.540;2023-02-03T02:45:31;3.28;;;1.50;;
76608;SDS011;65928;53.936;27.540;2023-02-03T02:48:06;2.58;;;1.58;;
76608;SDS011;65928;53.936;27.540;2023-02-03T02:50:38;2.40;;;1.38;;
76608;SDS011;65928;53.936;27.540;2023-02-03T02:53:07;2.78;;;1.60;;
76608;SDS011;65928;53.936;27.540;2023-02-03T02:55:36;2.65;;;1.50;;
76608;SDS011;65928;53.936;27.540;2023-02-03T02:58:06;2.60;;;1.30;;
76608;SDS011;65928;53.936;27.540;2023-02-03T03:00:36;2.45;;;1.20;;
76608;SDS011;65928;53.936;27.540;2023-02-03T03:03:09;3.45;;;1.95;;
76608;SDS011;65928;53.936;27.540;2023-02-03T03:05:37;3.03;;;1.58;;
76608;SDS011;65928;53.936;27.540;2023-02-03T03:08:06;2.75;;;1.10;;
76608;SDS011;65928;53.936;27.540;2023-02-03T03:10:33;3.22;;;1.50;;
76608;SDS011;65928;53.936;27.540;2023-02-03T03:13:03;2.85;;;1.35;;
76608;SDS011;65928;53.936;27.540;2023-02-03T03:15:32;3.95;;;1.90;;
76608;SDS011;65928;53.936;27.540;2023-02-03T03:18:02;2.85;;;1.70;;
76608;SDS011;65928;53.936;27.540;2023-02-03T03:20:33;3.83;;;1.83;;
76608;SDS011;65928;53.936;27.540;2023-02-03T03:23:12;2.38;;;1.20;;
76608;SDS011;65928;53.936;27.540;2023-02-03T03:25:45;2.80;;;1.70;;
76608;SDS011;65928;53.936;27.540;2023-02-03T03:28:20;2.92;;;1.08;;
76608;SDS011;65928;53.936;27.540;2023-02-03T03:30:52;2.45;;;1.38;;
76608;SDS011;65928;53.936;27.540;2023-02-03T03:33:18;3.33;;;1.42;;
76608;SDS011;65928;53.936;27.540;2023-02-03T03:35:49;2.75;;;1.35;;
76608;SDS011;65928;53.936;27.540;2023-02-03T03:40:50;2.13;;;1.05;;
76608;SDS011;65928;53.936;27.540;2023-02-03T03:43:24;2.63;;;1.20;;
76608;SDS011;65928;53.936;27.540;2023-02-03T03:45:57;2.67;;;1.40;;
76608;SDS011;65928;53.936;27.540;2023-02-03T03:48:33;2.92;;;1.63;;
76608;SDS011;65928;53.936;27.540;2023-02-03T03:51:05;3.08;;;1.40;;
76608;SDS011;65928;53.936;27.540;2023-02-03T03:53:37;2.40;;;1.17;;
76608;SDS011;65928;53.936;27.540;2023-02-03T03:56:08;4.35;;;1.67;;
76608;SDS011;65928;53.936;27.540;2023-02-03T03:58:40;2.42;;;1.35;;
76608;SDS011;65928;53.936;27.540;2023-02-03T04:01:09;2.30;;;1.33;;
76608;SDS011;65928;53.936;27.540;2023-02-03T04:03:37;2.72;;;1.38;;
76608;SDS011;65928;53.936;27.540;2023-02-03T04:06:08;2.58;;;1.48;;
76608;SDS011;65928;53.936;27.540;2023-02-03T04:08:34;3.13;;;1.52;;
76608;SDS011;65928;53.936;27.540;2023-02-03T04:10:59;3.63;;;1.90;;
76608;SDS011;65928;53.936;27.540;2023-02-03T04:13:25;2.90;;;1.40;;
76608;SDS011;65928;53.936;27.540;2023-02-03T04:15:50;3.67;;;1.50;;
76608;SDS011;65928;53.936;27.540;2023-02-03T04:18:16;2.67;;;1.23;;
76608;SDS011;65928;53.936;27.540;2023-02-03T04:20:41;2.17;;;0.90;;
76608;SDS011;65928;53.936;27.540;2023-02-03T04:23:07;2.53;;;1.20;;
76608;SDS011;65928;53.936;27.540;2023-02-03T04:25:34;2.67;;;1.40;;
76608;SDS011;65928;53.936;27.540;2023-02-03T04:27:59;2.55;;;1.15;;
76608;SDS011;65928;53.936;27.540;2023-02-03T04:30:25;2.65;;;1.25;;
76608;SDS011;65928;53.936;27.540;2023-02-03T04:32:51;2.53;;;1.30;;
76608;SDS011;65928;53.936;27.540;2023-02-03T04:35:16;2.50;;;1.27;;
76608;SDS011;65928;53.936;27.540;2023-02-03T04:37:42;2.55;;;1.48;;
76608;SDS011;65928;53.936;27.540;2023-02-03T04:40:08;2.45;;;1.23;;
76608;SDS011;65928;53.936;27.540;2023-02-03T04:42:37;3.25;;;1.83;;
76608;SDS011;65928;53.936;27.540;2023-02-03T04:45:04;3.00;;;1.40;;
76608;SDS011;65928;53.936;27.540;2023-02-03T04:47:31;2.90;;;1.40;;
76608;SDS011;65928;53.936;27.540;2023-02-03T04:49:57;2.67;;;1.30;;
76608;SDS011;65928;53.936;27.540;2023-02-03T04:52:22;2.90;;;1.30;;
76608;SDS011;65928;53.936;27.540;2023-02-03T04:54:48;2.17;;;1.13;;
76608;SDS011;65928;53.936;27.540;2023-02-03T04:57:13;3.53;;;1.40;;
76608;SDS011;65928;53.936;27.540;2023-02-03T04:59:39;3.50;;;1.58;;
76608;SDS011;65928;53.936;27.540;2023-02-03T05:02:04;2.90;;;1.63;;
76608;SDS011;65928;53.936;27.540;2023-02-03T05:04:30;3.35;;;1.50;;
76608;SDS011;65928;53.936;27.540;2023-02-03T05:06:56;5.50;;;3.30;;
76608;SDS011;65928;53.936;27.540;2023-02-03T05:09:22;4.20;;;2.50;;
76608;SDS011;65928;53.936;27.540;2023-02-03T05:11:49;3.95;;;2.20;;
76608;SDS011;65928;53.936;27.540;2023-02-03T05:14:14;5.18;;;3.00;;
76608;SDS011;65928;53.936;27.540;2023-02-03T05:16:40;4.40;;;3.08;;
76608;SDS011;65928;53.936;27.540;2023-02-03T05:19:05;3.85;;;2.45;;
76608;SDS011;65928;53.936;27.540;2023-02-03T05:21:31;3.67;;;2.55;;
76608;SDS011;65928;53.936;27.540;2023-02-03T05:23:56;4.80;;;2.00;;
76608;SDS011;65928;53.936;27.540;2023-02-03T05:26:22;4.60;;;2.83;;
76608;SDS011;65928;53.936;27.540;2023-02-03T05:28:47;4.57;;;2.40;;
76608;SDS011;65928;53.936;27.540;2023-02-03T05:31:13;8.68;;;3.28;;
76608;SDS011;65928;53.936;27.540;2023-02-03T05:33:39;4.90;;;2.83;;
76608;SDS011;65928;53.936;27.540;2023-02-03T05:36:04;5.47;;;3.10;;
76608;SDS011;65928;53.936;27.540;2023-02-03T05:38:30;3.42;;;2.22;;
76608;SDS011;65928;53.936;27.540;2023-02-03T05:40:55;6.35;;;3.90;;
76608;SDS011;65928;53.936;27.540;2023-02-03T05:43:39;7.97;;;4.93;;
76608;SDS011;65928;53.936;27.540;2023-02-03T05:46:05;4.43;;;2.58;;
76608;SDS011;65928;53.936;27.540;2023-02-03T05:48:31;3.63;;;1.75;;
76608;SDS011;65928;53.936;27.540;2023-02-03T05:50:57;5.82;;;3.55;;
76608;SDS011;65928;53.936;27.540;2023-02-03T05:53:23;9.48;;;4.80;;
76608;SDS011;65928;53.936;27.540;2023-02-03T05:55:50;12.50;;;8.30;;
76608;SDS011;65928;53.936;27.540;2023-02-03T05:58:16;9.15;;;5.20;;
76608;SDS011;65928;53.936;27.540;2023-02-03T06:00:41;5.75;;;3.25;;
76608;SDS011;65928;53.936;27.540;2023-02-03T06:03:07;6.63;;;3.83;;
76608;SDS011;65928;53.936;27.540;2023-02-03T06:05:33;7.90;;;5.53;;
76608;SDS011;65928;53.936;27.540;2023-02-03T06:07:59;7.47;;;4.90;;
76608;SDS011;65928;53.936;27.540;2023-02-03T06:10:25;4.35;;;2.70;;
76608;SDS011;65928;53.936;27.540;2023-02-03T06:12:52;4.53;;;3.42;;
76608;SDS011;65928;53.936;27.540;2023-02-03T06:15:17;5.57;;;4.07;;
76608;SDS011;65928;53.936;27.540;2023-02-03T06:17:44;5.10;;;2.47;;
76608;SDS011;65928;53.936;27.540;2023-02-03T06:20:11;3.00;;;1.88;;
76608;SDS011;65928;53.936;27.540;2023-02-03T06:22:38;5.57;;;3.38;;
76608;SDS011;65928;53.936;27.540;2023-02-03T06:25:03;10.63;;;5.82;;
76608;SDS011;65928;53.936;27.540;2023-02-03T06:27:29;6.10;;;3.78;;
76608;SDS011;65928;53.936;27.540;2023-02-03T06:29:55;5.40;;;2.80;;
76608;SDS011;65928;53.936;27.540;2023-02-03T06:32:20;6.28;;;3.92;;
76608;SDS011;65928;53.936;27.540;2023-02-03T06:34:46;4.57;;;2.78;;
76608;SDS011;65928;53.936;27.540;2023-02-03T06:37:11;8.23;;;3.90;;
76608;SDS011;65928;53.936;27.540;2023-02-03T06:39:37;7.70;;;4.03;;
76608;SDS011;65928;53.936;27.540;2023-02-03T06:42:02;5.75;;;3.90;;
76608;SDS011;65928;53.936;27.540;2023-02-03T06:44:28;3.67;;;1.77;;
76608;SDS011;65928;53.936;27.540;2023-02-03T06:46:53;3.47;;;2.03;;
76608;SDS011;65928;53.936;27.540;2023-02-03T06:49:20;4.70;;;2.65;;
76608;SDS011;65928;53.936;27.540;2023-02-03T06:51:46;4.55;;;2.47;;
76608;SDS011;65928;53.936;27.540;2023-02-03T06:54:12;7.32;;;4.22;;
76608;SDS011;65928;53.936;27.540;2023-02-03T06:56:38;6.75;;;3.40;;
76608;SDS011;65928;53.936;27.540;2023-02-03T06:59:04;3.72;;;2.33;;
76608;SDS011;65928;53.936;27.540;2023-02-03T07:01:29;3.03;;;1.77;;
76608;SDS011;65928;53.936;27.540;2023-02-03T07:03:55;4.78;;;2.72;;
76608;SDS011;65928;53.936;27.540;2023-02-03T07:06:25;3.80;;;1.80;;
76608;SDS011;65928;53.936;27.540;2023-02-03T07:08:57;4.38;;;2.60;;
76608;SDS011;65928;53.936;27.540;2023-02-03T07:11:22;4.30;;;2.83;;
76608;SDS011;65928;53.936;27.540;2023-02-03T07:13:50;5.68;;;2.55;;
76608;SDS011;65928;53.936;27.540;2023-02-03T07:16:15;5.35;;;2.70;;
76608;SDS011;65928;53.936;27.540;2023-02-03T07:18:42;6.72;;;3.45;;
76608;SDS011;65928;53.936;27.540;2023-02-03T07:21:07;3.97;;;2.20;;
76608;SDS011;65928;53.936;27.540;2023-02-03T07:23:33;4.53;;;2.80;;
76608;SDS011;65928;53.936;27.540;2023-02-03T07:25:58;5.70;;;3.65;;
76608;SDS011;65928;53.936;27.540;2023-02-03T07:28:25;8.77;;;4.45;;
76608;SDS011;65928;53.936;27.540;2023-02-03T07:30:50;5.22;;;3.00;;
76608;SDS011;65928;53.936;27.540;2023-02-03T07:33:16;13.15;;;8.90;;
76608;SDS011;65928;53.936;27.540;2023-02-03T07:35:41;7.72;;;4.10;;
76608;SDS011;65928;53.936;27.540;2023-02-03T07:38:06;10.68;;;6.28;;
76608;SDS011;65928;53.936;27.540;2023-02-03T07:40:32;10.07;;;3.88;;
76608;SDS011;65928;53.936;27.540;2023-02-03T07:42:57;10.93;;;5.18;;
76608;SDS011;65928;53.936;27.540;2023-02-03T07:45:24;4.15;;;1.98;;
76608;SDS011;65928;53.936;27.540;2023-02-03T07:47:49;13.40;;;8.40;;
76608;SDS011;65928;53.936;27.540;2023-02-03T07:50:15;7.80;;;3.45;;
76608;SDS011;65928;53.936;27.540;2023-02-03T07:52:40;6.55;;;3.88;;
76608;SDS011;65928;53.936;27.540;2023-02-03T07:55:06;4.47;;;2.72;;
76608;SDS011;65928;53.936;27.540;2023-02-03T07:57:32;3.47;;;1.80;;
76608;SDS011;65928;53.936;27.540;2023-02-03T07:59:57;6.00;;;2.60;;
76608;SDS011;65928;53.936;27.540;2023-02-03T08:02:23;6.57;;;3.80;;
76608;SDS011;65928;53.936;27.540;2023-02-03T08:04:48;6.68;;;3.35;;
76608;SDS011;65928;53.936;27.540;2023-02-03T08:07:14;5.40;;;3.13;;
76608;SDS011;65928;53.936;27.540;2023-02-03T08:09:39;4.28;;;3.00;;
76608;SDS011;65928;53.936;27.540;2023-02-03T08:12:05;7.88;;;3.67;;
76608;SDS011;65928;53.936;27.540;2023-02-03T08:14:30;4.32;;;2.05;;
76608;SDS011;65928;53.936;27.540;2023-02-03T08:16:56;4.43;;;2.22;;
76608;SDS011;65928;53.936;27.540;2023-02-03T08:19:21;6.20;;;3.13;;
76608;SDS011;65928;53.936;27.540;2023-02-03T08:21:47;5.40;;;2.70;;
76608;SDS011;65928;53.936;27.540;2023-02-03T08:24:12;5.32;;;2.38;;
76608;SDS011;65928;53.936;27.540;2023-02-03T08:26:38;5.05;;;2.08;;
76608;SDS011;65928;53.936;27.540;2023-02-03T08:29:04;2.85;;;1.30;;
76608;SDS011;65928;53.936;27.540;2023-02-03T08:31:30;4.78;;;1.90;;
76608;SDS011;65928;53.936;27.540;2023-02-03T08:33:56;2.42;;;1.20;;
76608;SDS011;65928;53.936;27.540;2023-02-03T08:36:22;5.85;;;3.50;;
76608;SDS011;65928;53.936;27.540;2023-02-03T08:38:47;5.35;;;2.63;;
76608;SDS011;65928;53.936;27.540;2023-02-03T08:41:14;5.20;;;3.03;;
76608;SDS011;65928;53.936;27.540;2023-02-03T08:43:42;5.72;;;3.00;;
76608;SDS011;65928;53.936;27.540;2023-02-03T08:46:09;4.35;;;2.78;;
76608;SDS011;65928;53.936;27.540;2023-02-03T08:48:35;5.35;;;2.97;;
76608;SDS011;65928;53.936;27.540;2023-02-03T08:51:01;4.18;;;1.42;;
76608;SDS011;65928;53.936;27.540;2023-02-03T08:53:33;4.32;;;2.35;;
76608;SDS011;65928;53.936;27.540;2023-02-03T08:55:58;2.05;;;1.10;;
76608;SDS011;65928;53.936;27.540;2023-02-03T08:58:24;4.05;;;2.40;;
76608;SDS011;65928;53.936;27.540;2023-02-03T09:00:49;4.35;;;2.80;;
76608;SDS011;65928;53.936;27.540;2023-02-03T09:03:17;3.55;;;1.55;;
76608;SDS011;65928;53.936;27.540;2023-02-03T09:05:42;4.22;;;1.88;;
76608;SDS011;65928;53.936;27.540;2023-02-03T09:08:08;4.47;;;2.42;;
76608;SDS011;65928;53.936;27.540;2023-02-03T09:10:34;3.55;;;1.83;;
76608;SDS011;65928;53.936;27.540;2023-02-03T09:13:00;4.38;;;1.80;;
76608;SDS011;65928;53.936;27.540;2023-02-03T09:15:25;4.75;;;2.05;;
76608;SDS011;65928;53.936;27.540;2023-02-03T09:17:51;4.38;;;1.58;;
76608;SDS011;65928;53.936;27.540;2023-02-03T09:20:17;2.78;;;1.17;;
76608;SDS011;65928;53.936;27.540;2023-02-03T09:22:43;5.22;;;3.33;;
76608;SDS011;65928;53.936;27.540;2023-02-03T09:25:08;4.88;;;1.90;;
76608;SDS011;65928;53.936;27.540;2023-02-03T09:27:34;3.72;;;1.45;;
76608;SDS011;65928;53.936;27.540;2023-02-03T09:29:59;3.20;;;1.80;;
76608;SDS011;65928;53.936;27.540;2023-02-03T09:32:25;2.75;;;1.30;;
76608;SDS011;65928;53.936;27.540;2023-02-03T09:34:50;3.42;;;1.40;;
76608;SDS011;65928;53.936;27.540;2023-02-03T09:37:16;4.95;;;2.10;;
76608;SDS011;65928;53.936;27.540;2023-02-03T09:39:41;3.10;;;1.52;;
76608;SDS011;65928;53.936;27.540;2023-02-03T09:47:35;8.13;;;2.75;;
76608;SDS011;65928;53.936;27.540;2023-02-03T09:50:04;7.40;;;3.50;;
76608;SDS011;65928;53.936;27.540;2023-02-03T09:52:36;5.93;;;3.63;;
76608;SDS011;65928;53.936;27.540;2023-02-03T09:55:15;3.78;;;1.98;;
76608;SDS011;65928;53.936;27.540;2023-02-03T09:58:15;5.05;;;2.08;;
76608;SDS011;65928;53.936;27.540;2023-02-03T10:03:40;3.28;;;1.67;;
76608;SDS011;65928;53.936;27.540;2023-02-03T10:06:22;5.57;;;2.00;;
76608;SDS011;65928;53.936;27.540;2023-02-03T10:14:21;2.58;;;1.38;;
76608;SDS011;65928;53.936;27.540;2023-02-03T10:17:16;2.33;;;1.25;;
76608;SDS011;65928;53.936;27.540;2023-02-03T10:19:51;3.30;;;1.80;;
76608;SDS011;65928;53.936;27.540;2023-02-03T10:22:28;3.25;;;1.40;;
76608;SDS011;65928;53.936;27.540;2023-02-03T10:27:27;3.25;;;1.42;;
76608;SDS011;65928;53.936;27.540;2023-02-03T10:29:59;3.88;;;1.80;;
76608;SDS011;65928;53.936;27.540;2023-02-03T10:32:26;4.70;;;2.38;;
76608;SDS011;65928;53.936;27.540;2023-02-03T10:34:52;2.95;;;1.50;;
76608;SDS011;65928;53.936;27.540;2023-02-03T10:37:26;2.00;;;0.90;;
76608;SDS011;65928;53.936;27.540;2023-02-03T10:39:56;3.33;;;1.45;;
76608;SDS011;65928;53.936;27.540;2023-02-03T10:42:23;3.42;;;1.70;;
76608;SDS011;65928;53.936;27.540;2023-02-03T10:47:27;2.33;;;1.52;;
76608;SDS011;65928;53.936;27.540;2023-02-03T10:49:54;2.92;;;1.80;;
76608;SDS011;65928;53.936;27.540;2023-02-03T10:52:28;2.28;;;1.20;;
76608;SDS011;65928;53.936;27.540;2023-02-03T10:54:56;5.97;;;3.92;;
76608;SDS011;65928;53.936;27.540;2023-02-03T10:57:23;6.30;;;5.18;;
76608;SDS011;65928;53.936;27.540;2023-02-03T10:59:50;4.03;;;2.42;;
76608;SDS011;65928;53.936;27.540;2023-02-03T11:02:28;5.50;;;2.83;;
76608;SDS011;65928;53.936;27.540;2023-02-03T11:05:07;6.95;;;3.90;;
76608;SDS011;65928;53.936;27.540;2023-02-03T11:07:47;8.00;;;5.32;;
76608;SDS011;65928;53.936;27.540;2023-02-03T11:21:08;5.00;;;2.72;;
76608;SDS011;65928;53.936;27.540;2023-02-03T11:23:36;5.43;;;2.88;;
76608;SDS011;65928;53.936;27.540;2023-02-03T11:26:09;9.45;;;4.70;;
76608;SDS011;65928;53.936;27.540;2023-02-03T11:28:40;7.45;;;4.78;;
76608;SDS011;65928;53.936;27.540;2023-02-03T11:31:14;9.30;;;5.13;;
76608;SDS011;65928;53.936;27.540;2023-02-03T11:33:45;7.18;;;3.78;;
76608;SDS011;65928;53.936;27.540;2023-02-03T11:36:12;5.70;;;3.15;;
76608;SDS011;65928;53.936;27.540;2023-02-03T11:38:38;3.35;;;2.03;;
76608;SDS011;65928;53.936;27.540;2023-02-03T11:41:08;4.47;;;2.78;;
76608;SDS011;65928;53.936;27.540;2023-02-03T11:43:40;8.52;;;4.60;;
76608;SDS011;65928;53.936;27.540;2023-02-03T11:46:05;7.15;;;3.45;;
76608;SDS011;65928;53.936;27.540;2023-02-03T12:08:00;4.20;;;2.42;;
76608;SDS011;65928;53.936;27.540;2023-02-03T12:20:58;4.57;;;3.33;;
76608;SDS011;65928;53.936;27.540;2023-02-03T12:23:53;6.28;;;2.72;;
76608;SDS011;65928;53.936;27.540;2023-02-03T12:26:34;8.02;;;5.35;;
76608;SDS011;65928;53.936;27.540;2023-02-03T12:31:46;8.48;;;5.43;;
76608;SDS011;65928;53.936;27.540;2023-02-03T12:34:34;13.93;;;7.93;;
76608;SDS011;65928;53.936;27.540;2023-02-03T12:40:44;7.00;;;3.92;;
76608;SDS011;65928;53.936;27.540;2023-02-03T12:42:49;5.68;;;3.08;;
76608;SDS011;65928;53.936;27.540;2023-02-03T12:45:22;3.40;;;2.03;;
76608;SDS011;65928;53.936;27.540;2023-02-03T12:47:54;4.45;;;2.38;;
76608;SDS011;65928;53.936;27.540;2023-02-03T12:50:49;5.13;;;2.90;;
76608;SDS011;65928;53.936;27.540;2023-02-03T12:53:19;4.53;;;2.45;;
76608;SDS011;65928;53.936;27.540;2023-02-03T12:55:54;4.53;;;2.72;;
76608;SDS011;65928;53.936;27.540;2023-02-03T13:01:05;3.88;;;2.03;;
76608;SDS011;65928;53.936;27.540;2023-02-03T13:03:38;4.45;;;1.95;;
76608;SDS011;65928;53.936;27.540;2023-02-03T13:06:23;3.63;;;2.10;;
76608;SDS011;65928;53.936;27.540;2023-02-03T13:09:01;3.15;;;1.70;;
76608;SDS011;65928;53.936;27.540;2023-02-03T13:16:37;4.10;;;2.10;;
76608;SDS011;65928;53.936;27.540;2023-02-03T13:19:13;3.55;;;1.67;;
76608;SDS011;65928;53.936;27.540;2023-02-03T13:21:46;4.53;;;1.55;;
76608;SDS011;65928;53.936;27.540;2023-02-03T13:24:12;4.35;;;2.00;;
76608;SDS011;65928;53.936;27.540;2023-02-03T13:32:54;3.55;;;1.83;;
76608;SDS011;65928;53.936;27.540;2023-02-03T13:41:29;3.33;;;2.03;;
76608;SDS011;65928;53.936;27.540;2023-02-03T13:44:06;2.83;;;1.63;;
76608;SDS011;65928;53.936;27.540;2023-02-03T13:46:37;3.37;;;1.90;;
76608;SDS011;65928;53.936;27.540;2023-02-03T13:49:04;3.97;;;1.90;;
76608;SDS011;65928;53.936;27.540;2023-02-03T13:51:36;17.23;;;11.60;;
76608;SDS011;65928;53.936;27.540;2023-02-03T13:54:13;9.05;;;5.82;;
76608;SDS011;65928;53.936;27.540;2023-02-03T13:56:52;3.40;;;1.60;;
76608;SDS011;65928;53.936;27.540;2023-02-03T13:59:42;3.88;;;2.20;;
76608;SDS011;65928;53.936;27.540;2023-02-03T14:12:37;3.85;;;2.13;;
76608;SDS011;65928;53.936;27.540;2023-02-03T14:22:53;3.38;;;1.98;;
76608;SDS011;65928;53.936;27.540;2023-02-03T14:25:22;4.72;;;2.10;;
76608;SDS011;65928;53.936;27.540;2023-02-03T14:27:59;3.50;;;1.90;;
76608;SDS011;65928;53.936;27.540;2023-02-03T14:30:29;7.93;;;2.47;;
76608;SDS011;65928;53.936;27.540;2023-02-03T14:32:55;4.95;;;2.08;;
76608;SDS011;65928;53.936;27.540;2023-02-03T14:35:36;12.27;;;6.90;;
76608;SDS011;65928;53.936;27.540;2023-02-03T15:02:16;24.90;;;18.17;;
76608;SDS011;65928;53.936;27.540;2023-02-03T15:04:49;15.73;;;9.82;;
76608;SDS011;65928;53.936;27.540;2023-02-03T15:10:23;18.77;;;13.43;;
76608;SDS011;65928;53.936;27.540;2023-02-03T15:12:55;33.55;;;21.65;;
76608;SDS011;65928;53.936;27.540;2023-02-03T15:15:25;24.17;;;14.40;;
76608;SDS011;65928;53.936;27.540;2023-02-03T15:17:54;31.60;;;20.23;;
76608;SDS011;65928;53.936;27.540;2023-02-03T15:20:37;24.95;;;16.00;;
76608;SDS011;65928;53.936;27.540;2023-02-03T15:23:20;20.08;;;11.63;;
76608;SDS011;65928;53.936;27.540;2023-02-03T15:28:20;8.63;;;5.60;;
76608;SDS011;65928;53.936;27.540;2023-02-03T15:30:55;5.47;;;2.95;;
76608;SDS011;65928;53.936;27.540;2023-02-03T15:33:47;4.45;;;1.95;;
76608;SDS011;65928;53.936;27.540;2023-02-03T15:36:18;3.67;;;1.45;;
76608;SDS011;65928;53.936;27.540;2023-02-03T15:38:54;3.47;;;2.05;;
76608;SDS011;65928;53.936;27.540;2023-02-03T15:41:28;6.95;;;4.68;;
76608;SDS011;65928;53.936;27.540;2023-02-03T15:43:56;7.70;;;3.83;;
76608;SDS011;65928;53.936;27.540;2023-02-03T15:49:02;11.13;;;5.57;;
76608;SDS011;65928;53.936;27.540;2023-02-03T15:51:43;5.13;;;2.22;;
76608;SDS011;65928;53.936;27.540;2023-02-03T15:56:41;4.43;;;2.03;;
76608;SDS011;65928;53.936;27.540;2023-02-03T16:05:05;11.75;;;7.78;;
76608;SDS011;65928;53.936;27.540;2023-02-03T16:07:46;19.48;;;9.60;;
76608;SDS011;65928;53.936;27.540;2023-02-03T16:10:27;15.00;;;9.32;;
76608;SDS011;65928;53.936;27.540;2023-02-03T16:15:59;13.32;;;9.02;;
76608;SDS011;65928;53.936;27.540;2023-02-03T16:18:26;12.10;;;7.28;;
76608;SDS011;65928;53.936;27.540;2023-02-03T16:20:51;6.40;;;3.78;;
76608;SDS011;65928;53.936;27.540;2023-02-03T16:23:21;5.85;;;2.80;;
76608;SDS011;65928;53.936;27.540;2023-02-03T16:26:15;3.25;;;1.70;;
76608;SDS011;65928;53.936;27.540;2023-02-03T16:31:47;2.80;;;1.58;;
76608;SDS011;65928;53.936;27.540;2023-02-03T16:34:32;3.53;;;1.80;;
76608;SDS011;65928;53.936;27.540;2023-02-03T16:37:22;2.70;;;1.40;;
76608;SDS011;65928;53.936;27.540;2023-02-03T16:40:08;2.70;;;1.30;;
76608;SDS011;65928;53.936;27.540;2023-02-03T16:42:52;4.55;;;2.20;;
76608;SDS011;65928;53.936;27.540;2023-02-03T16:45:36;5.43;;;2.70;;
76608;SDS011;65928;53.936;27.540;2023-02-03T16:48:20;6.65;;;3.78;;
76608;SDS011;65928;53.936;27.540;2023-02-03T16:51:08;9.27;;;4.78;;
76608;SDS011;65928;53.936;27.540;2023-02-03T16:53:37;5.10;;;3.00;;
76608;SDS011;65928;53.936;27.540;2023-02-03T16:56:04;5.13;;;2.42;;
76608;SDS011;65928;53.936;27.540;2023-02-03T16:58:30;3.67;;;1.85;;
76608;SDS011;65928;53.936;27.540;2023-02-03T17:00:57;3.28;;;2.03;;
76608;SDS011;65928;53.936;27.540;2023-02-03T17:03:24;5.13;;;2.47;;
76608;SDS011;65928;53.936;27.540;2023-02-03T17:05:51;5.20;;;2.70;;
76608;SDS011;65928;53.936;27.540;2023-02-03T17:08:19;4.38;;;2.00;;
76608;SDS011;65928;53.936;27.540;2023-02-03T17:10:46;4.03;;;2.15;;
76608;SDS011;65928;53.936;27.540;2023-02-03T17:13:13;5.47;;;2.95;;
76608;SDS011;65928;53.936;27.540;2023-02-03T17:15:39;8.13;;;3.30;;
76608;SDS011;65928;53.936;27.540;2023-02-03T17:18:08;7.18;;;3.42;;
76608;SDS011;65928;53.936;27.540;2023-02-03T17:20:35;5.53;;;3.50;;
76608;SDS011;65928;53.936;27.540;2023-02-03T17:23:01;7.68;;;3.95;;
76608;SDS011;65928;53.936;27.540;2023-02-03T17:25:27;6.10;;;3.78;;
76608;SDS011;65928;53.936;27.540;2023-02-03T17:27:53;8.05;;;4.47;;
76608;SDS011;65928;53.936;27.540;2023-02-03T17:30:18;10.23;;;6.88;;
76608;SDS011;65928;53.936;27.540;2023-02-03T17:32:43;11.82;;;7.22;;
76608;SDS011;65928;53.936;27.540;2023-02-03T17:35:09;10.25;;;6.50;;
76608;SDS011;65928;53.936;27.540;2023-02-03T17:37:35;9.35;;;7.03;;
76608;SDS011;65928;53.936;27.540;2023-02-03T17:40:00;4.05;;;2.15;;